Time;durP1;ratioP1;P1;durP2;ratioP2;P2;SDS_P1;SDS_P2;PMS_P1;PMS_P2;Temp;Humidity;BMP_temperature;BMP_pressure;BME280_temperature;BME280_humidity;BME280_pressure;Samples;Min_cycle;Max_cycle;Signal;HPM_P1;HPM_P2
2023/10/03 00:02:05;;;;;;;;;;;;;;;;;;5014378;28;19921;-63
2023/10/03 00:04:31;;;;;;;;;;;;;;;;;;5008449;28;19921;-64
2023/10/03 00:06:57;;;;;;;;;;;;;;;;;;5012474;28;19975;-64
2023/10/03 00:09:22;;;;;;;;;;;;;;;;;;4995928;28;20760;-65
2023/10/03 00:11:53;;;;;;;;;;;;;;;;;;5013043;28;20095;-65
2023/10/03 00:14:18;;;;;;;;;;;;;;;;;;5014062;28;19952;-65
2023/10/03 00:16:44;;;;;;;;;;;;;;;;;;5012048;28;20011;-65
2023/10/03 00:19:10;;;;;;;;;;;;;;;;;;4996541;28;19916;-65
2023/10/03 00:21:36;;;;;;;;;;;;;;;;;;5009584;28;20494;-64
2023/10/03 00:24:02;;;;;;;;;;;;;;;;;;5011984;28;19939;-64
2023/10/03 00:26:31;;;;;;;;;;;;;;;;;;4992811;28;19921;-65
2023/10/03 00:28:56;;;;;;;;;;;;;;;;;;5012492;28;19917;-65
2023/10/03 00:31:24;;;;;;;;;;;;;;;;;;5009845;28;20328;-66
2023/10/03 00:33:52;;;;;;;;;;;;;;;;;;5010468;28;19979;-65
2023/10/03 00:36:22;;;;;;;;;;;;;;;;;;5026561;28;19917;-66
2023/10/03 00:38:47;;;;;;;;;;;;;;;;;;4991464;28;19948;-66
2023/10/03 00:41:13;;;;;;;;;;;;;;;;;;4993410;28;19928;-65
2023/10/03 00:43:41;;;;;;;;;;;;;;;;;;4994710;28;19917;-65
2023/10/03 00:46:08;;;;;;;;;;;;;;;;;;5011818;28;19964;-65
2023/10/03 00:48:39;;;;;;;;;;;;;;;;;;4994942;28;19925;-65
2023/10/03 00:51:04;;;;;;;;;;;;;;;;;;5011864;28;19921;-65
2023/10/03 00:53:32;;;;;;;;;;;;;;;;;;5012383;28;19967;-65
2023/10/03 00:56:02;;;;;;;;;;;;;;;;;;5022566;28;20027;-67
2023/10/03 00:58:32;;;;;;;;;;;;;;;;;;5021127;28;20835;-69
2023/10/03 01:00:58;;;;;;;;;;;;;;;;;;5003884;28;19921;-66
2023/10/03 01:03:24;;;;;;;;;;;;;;;;;;4991981;28;19928;-66
2023/10/03 01:05:52;;;;;;;;;;;;;;;;;;5008016;28;19925;-65
2023/10/03 01:08:18;;;;;;;;;;;;;;;;;;4993272;28;20730;-65
2023/10/03 01:10:46;;;;;;;;;;;;;;;;;;4988944;28;19917;-65
2023/10/03 01:13:19;;;;;;;;;;;;;;;;;;5005977;28;19932;-65
2023/10/03 01:15:49;;;;;;;;;;;;;;;;;;5007352;28;19957;-65
2023/10/03 01:18:14;;;;;;;;;;;;;;;;;;5006887;28;19928;-63
2023/10/03 01:20:41;;;;;;;;;;;;;;;;;;5009294;28;19924;-66
2023/10/03 01:23:06;;;;;;;;;;;;;;;;;;5007845;28;19921;-65
2023/10/03 01:25:41;;;;;;;;;;;;;;;;;;5006605;28;19927;-65
2023/10/03 01:28:07;;;;;;;;;;;;;;;;;;4990001;28;19925;-64
2023/10/03 01:30:41;;;;;;;;;;;;;;;;;;5004644;28;19917;-63
2023/10/03 01:33:06;;;;;;;;;;;;;;;;;;5004846;28;19921;-65
2023/10/03 01:35:31;;;;;;;;;;;;;;;;;;5010217;28;19952;-65
2023/10/03 01:37:57;;;;;;;;;;;;;;;;;;5007739;28;20047;-64
2023/10/03 01:40:26;;;;;;;;;;;;;;;;;;5009325;28;19921;-64
2023/10/03 01:42:56;;;;;;;;;;;;;;;;;;5007675;28;19972;-64
2023/10/03 01:45:22;;;;;;;;;;;;;;;;;;5004288;28;20008;-63
2023/10/03 01:47:50;;;;;;;;;;;;;;;;;;5005749;28;19921;-65
2023/10/03 01:50:19;;;;;;;;;;;;;;;;;;5002014;28;19971;-65
2023/10/03 01:52:46;;;;;;;;;;;;;;;;;;5006216;28;20016;-63
2023/10/03 01:55:14;;;;;;;;;;;;;;;;;;5007020;28;21730;-63
2023/10/03 01:57:40;;;;;;;;;;;;;;;;;;5013294;28;19988;-66
2023/10/03 02:00:11;;;;;;;;;;;;;;;;;;5010483;28;19964;-65
2023/10/03 02:02:36;;;;;;;;;;;;;;;;;;5026959;28;19921;-66
2023/10/03 02:05:02;;;;;;;;;;;;;;;;;;5029592;28;19932;-65
2023/10/03 02:07:29;;;;;;;;;;;;;;;;;;5008053;28;19928;-67
2023/10/03 02:09:55;;;;;;;;;;;;;;;;;;5026014;28;19917;-66
2023/10/03 02:12:23;;;;;;;;;;;;;;;;;;5026775;28;19927;-65
2023/10/03 02:14:49;;;;;;;;;;;;;;;;;;5042656;28;19920;-65
2023/10/03 02:17:15;;;;;;;;;;;;;;;;;;5011063;28;19970;-64
2023/10/03 02:19:45;;;;;;;;;;;;;;;;;;5010024;28;20049;-65
2023/10/03 02:22:18;;;;;;;;;;;;;;;;;;5026459;28;19970;-65
2023/10/03 02:24:48;;;;;;;;;;;;;;;;;;5024200;28;19925;-64
2023/10/03 02:27:17;;;;;;;;;;;;;;;;;;5042877;28;20814;-63
2023/10/03 02:29:51;;;;;;;;;;;;;;;;;;5009739;28;19924;-64
2023/10/03 02:32:16;;;;;;;;;;;;;;;;;;5010387;28;20047;-64
2023/10/03 02:34:47;;;;;;;;;;;;;;;;;;5008137;28;19921;-65
2023/10/03 02:37:13;;;;;;;;;;;;;;;;;;5026275;28;19966;-64
2023/10/03 02:39:41;;;;;;;;;;;;;;;;;;5026666;28;19917;-64
2023/10/03 02:42:09;;;;;;;;;;;;;;;;;;5023713;28;19943;-64
2023/10/03 02:44:36;;;;;;;;;;;;;;;;;;5009272;28;19925;-65
2023/10/03 02:47:04;;;;;;;;;;;;;;;;;;5042438;28;19964;-65
2023/10/03 02:49:29;;;;;;;;;;;;;;;;;;5042560;28;19932;-64
2023/10/03 02:51:55;;;;;;;;;;;;;;;;;;5006593;28;19928;-65
2023/10/03 02:54:22;;;;;;;;;;;;;;;;;;5024239;28;19982;-65
2023/10/03 02:56:51;;;;;;;;;;;;;;;;;;5025607;28;19928;-64
2023/10/03 02:59:17;;;;;;;;;;;;;;;;;;5008012;28;20644;-64
2023/10/03 03:01:52;;;;;;;;;;;;;;;;;;5026881;28;20876;-65
2023/10/03 03:04:17;;;;;;;;;;;;;;;;;;5028316;28;19932;-64
2023/10/03 03:06:46;;;;;;;;;;;;;;;;;;5046484;28;19916;-67
2023/10/03 03:09:17;;;;;;;;;;;;;;;;;;5025585;28;20845;-65
2023/10/03 03:11:47;;;;;;;;;;;;;;;;;;5043418;28;19970;-65
2023/10/03 03:14:16;;;;;;;;;;;;;;;;;;5026568;28;19962;-64
2023/10/03 03:16:42;;;;;;;;;;;;;;;;;;5011509;28;20035;-65
2023/10/03 03:19:11;;;;;;;;;;;;;;;;;;5010677;28;19920;-64
2023/10/03 03:21:36;;;;;;;;;;;;;;;;;;5012910;28;19931;-65
2023/10/03 03:24:08;;;;;;;;;;;;;;;;;;5030320;28;19977;-65
2023/10/03 03:26:46;;;;;;;;;;;;;;;;;;5029208;28;20415;-64
2023/10/03 03:29:22;;;;;;;;;;;;;;;;;;5050075;28;20328;-65
2023/10/03 03:31:50;;;;;;;;;;;;;;;;;;5029351;28;19921;-64
2023/10/03 03:34:16;;;;;;;;;;;;;;;;;;5051129;28;20563;-64
2023/10/03 03:36:46;;;;;;;;;;;;;;;;;;5049657;28;19921;-64
2023/10/03 03:39:15;;;;;;;;;;;;;;;;;;5015024;28;19924;-65
2023/10/03 03:41:42;;;;;;;;;;;;;;;;;;5050349;28;19927;-63
2023/10/03 03:44:13;;;;;;;;;;;;;;;;;;5050354;28;20375;-64
2023/10/03 03:46:40;;;;;;;;;;;;;;;;;;5048898;28;19927;-66
2023/10/03 03:49:08;;;;;;;;;;;;;;;;;;5033935;28;19921;-64
2023/10/03 03:51:34;;;;;;;;;;;;;;;;;;5030298;28;20590;-65
2023/10/03 03:54:09;;;;;;;;;;;;;;;;;;5010410;28;19967;-66
2023/10/03 03:56:38;;;;;;;;;;;;;;;;;;5025995;28;20065;-65
2023/10/03 03:59:05;;;;;;;;;;;;;;;;;;5045620;28;19925;-65
2023/10/03 04:01:33;;;;;;;;;;;;;;;;;;5050471;28;19963;-64
2023/10/03 04:03:59;;;;;;;;;;;;;;;;;;5011800;28;19959;-65
2023/10/03 04:06:26;;;;;;;;;;;;;;;;;;5052809;28;19916;-64
2023/10/03 04:08:52;;;;;;;;;;;;;;;;;;5049257;28;20496;-64
2023/10/03 04:11:17;;;;;;;;;;;;;;;;;;5014248;28;20007;-64
2023/10/03 04:13:49;;;;;;;;;;;;;;;;;;5031267;28;19920;-64
2023/10/03 04:16:15;;;;;;;;;;;;;;;;;;5042196;28;20036;-63
2023/10/03 04:18:40;;;;;;;;;;;;;;;;;;5048640;28;19916;-64
2023/10/03 04:21:07;;;;;;;;;;;;;;;;;;5048492;28;19977;-65
2023/10/03 04:23:32;;;;;;;;;;;;;;;;;;5013754;28;19955;-63
2023/10/03 04:26:01;;;;;;;;;;;;;;;;;;5012005;28;20873;-64
2023/10/03 04:28:26;;;;;;;;;;;;;;;;;;5031812;28;19931;-62
2023/10/03 04:30:55;;;;;;;;;;;;;;;;;;5033526;28;19927;-65
2023/10/03 04:33:21;;;;;;;;;;;;;;;;;;5032486;28;19931;-64
2023/10/03 04:35:49;;;;;;;;;;;;;;;;;;5050635;28;19928;-64
2023/10/03 04:38:20;;;;;;;;;;;;;;;;;;5050655;28;19921;-65
2023/10/03 04:40:48;;;;;;;;;;;;;;;;;;5051288;28;20299;-65
2023/10/03 04:43:16;;;;;;;;;;;;;;;;;;5028344;28;19920;-63
2023/10/03 04:45:41;;;;;;;;;;;;;;;;;;5014234;28;19924;-63
2023/10/03 04:48:06;;;;;;;;;;;;;;;;;;5050714;28;20366;-64
2023/10/03 04:50:36;;;;;;;;;;;;;;;;;;5050105;28;19920;-63
2023/10/03 04:53:02;;;;;;;;;;;;;;;;;;5052393;28;20352;-63
2023/10/03 04:55:30;;;;;;;;;;;;;;;;;;5005675;28;19997;-66
2023/10/03 04:57:55;;;;;;;;;;;;;;;;;;5028985;28;19955;-66
2023/10/03 05:00:21;;;;;;;;;;;;;;;;;;5024891;28;20050;-63
2023/10/03 05:02:49;;;;;;;;;;;;;;;;;;5050891;28;20372;-63
2023/10/03 05:05:15;;;;;;;;;;;;;;;;;;5028413;28;19920;-66
2023/10/03 05:07:43;;;;;;;;;;;;;;;;;;5029754;28;20327;-64
2023/10/03 05:10:09;;;;;;;;;;;;;;;;;;5028771;28;19917;-63
2023/10/03 05:12:34;;;;;;;;;;;;;;;;;;5011377;28;20038;-63
2023/10/03 05:15:03;;;;;;;;;;;;;;;;;;5012864;28;19916;-64
2023/10/03 05:17:30;;;;;;;;;;;;;;;;;;5048405;28;19925;-64
2023/10/03 05:19:59;;;;;;;;;;;;;;;;;;5026728;28;20035;-63
2023/10/03 05:22:25;;;;;;;;;;;;;;;;;;5026973;28;19955;-65
2023/10/03 05:24:50;;;;;;;;;;;;;;;;;;5042409;28;19924;-65
2023/10/03 05:27:18;;;;;;;;;;;;;;;;;;5027843;28;19920;-65
2023/10/03 05:29:44;;;;;;;;;;;;;;;;;;5027444;28;20015;-68
2023/10/03 05:32:14;;;;;;;;;;;;;;;;;;5049814;28;19970;-66
2023/10/03 05:34:39;;;;;;;;;;;;;;;;;;5028303;28;19928;-65
2023/10/03 05:37:07;;;;;;;;;;;;;;;;;;5013874;28;19962;-68
2023/10/03 05:39:32;;;;;;;;;;;;;;;;;;5048450;28;20956;-64
2023/10/03 05:42:00;;;;;;;;;;;;;;;;;;5032563;28;19920;-66
2023/10/03 05:44:26;;;;;;;;;;;;;;;;;;5012274;28;19924;-67
2023/10/03 05:47:00;;;;;;;;;;;;;;;;;;5049558;28;20292;-68
2023/10/03 05:49:25;;;;;;;;;;;;;;;;;;5049908;28;20572;-63
2023/10/03 05:51:56;;;;;;;;;;;;;;;;;;5011404;28;19917;-64
2023/10/03 05:54:27;;;;;;;;;;;;;;;;;;5011920;28;19920;-65
2023/10/03 05:56:52;;;;;;;;;;;;;;;;;;5029442;28;19917;-64
2023/10/03 05:59:18;;;;;;;;;;;;;;;;;;5011671;28;21561;-64
2023/10/03 06:01:46;;;;;;;;;;;;;;;;;;5027942;28;19924;-66
2023/10/03 06:04:14;;;;;;;;;;;;;;;;;;5025712;28;20045;-65
2023/10/03 06:06:43;;;;;;;;;;;;;;;;;;5029827;28;19920;-64
2023/10/03 06:09:11;;;;;;;;;;;;;;;;;;5028049;28;20351;-65
2023/10/03 06:11:37;;;;;;;;;;;;;;;;;;5028024;28;19921;-64
2023/10/03 06:14:03;;;;;;;;;;;;;;;;;;5028929;28;19928;-66
2023/10/03 06:16:29;;;;;;;;;;;;;;;;;;5005075;28;19920;-64
2023/10/03 06:18:57;;;;;;;;;;;;;;;;;;5028257;28;19921;-67
2023/10/03 06:21:27;;;;;;;;;;;;;;;;;;5029232;28;19919;-66
2023/10/03 06:23:53;;;;;;;;;;;;;;;;;;5023395;28;19974;-65
2023/10/03 06:26:19;;;;;;;;;;;;;;;;;;5011153;28;19921;-65
2023/10/03 06:28:44;;;;;;;;;;;;;;;;;;5025456;28;19927;-62
2023/10/03 06:31:12;;;;;;;;;;;;;;;;;;5010702;28;19952;-64
2023/10/03 06:33:44;;;;;;;;;;;;;;;;;;5028765;28;19921;-65
2023/10/03 06:36:11;;;;;;;;;;;;;;;;;;5027900;28;20387;-64
2023/10/03 06:38:36;;;;;;;;;;;;;;;;;;5026873;28;19940;-66
2023/10/03 06:41:02;;;;;;;;;;;;;;;;;;5039898;28;19917;-65
2023/10/03 06:43:30;;;;;;;;;;;;;;;;;;5028790;28;20396;-64
2023/10/03 06:45:55;;;;;;;;;;;;;;;;;;5010181;28;19967;-70
2023/10/03 06:48:23;;;;;;;;;;;;;;;;;;5025762;28;19972;-70
2023/10/03 06:50:48;;;;;;;;;;;;;;;;;;5028214;28;19920;-67
2023/10/03 06:53:16;;;;;;;;;;;;;;;;;;5028549;28;19923;-65
2023/10/03 06:55:42;;;;;;;;;;;;;;;;;;5029785;28;20003;-69
2023/10/03 06:58:10;;;;;;;;;;;;;;;;;;5031550;28;20019;-68
2023/10/03 07:00:36;;;;;;;;;;;;;;;;;;5029773;28;20004;-70
2023/10/03 07:03:01;;;;;;;;;;;;;;;;;;5014284;28;19927;-70
2023/10/03 07:05:29;;;;;;;;;;;;;;;;;;5031549;28;20632;-69
2023/10/03 07:07:55;;;;;;;;;;;;;;;;;;5009784;28;19921;-70
2023/10/03 07:10:25;;;;;;;;;;;;;;;;;;5015672;28;20010;-74
2023/10/03 07:12:50;;;;;;;;;;;;;;;;;;5015122;28;19920;-65
2023/10/03 07:15:16;;;;;;;;;;;;;;;;;;5032211;28;19928;-67
2023/10/03 07:17:41;;;;;;;;;;;;;;;;;;5031723;28;19932;-66
2023/10/03 07:20:08;;;;;;;;;;;;;;;;;;5013507;28;19917;-70
2023/10/03 07:22:34;;;;;;;;;;;;;;;;;;5029201;28;19917;-69
2023/10/03 07:24:59;;;;;;;;;;;;;;;;;;5030776;28;19948;-69
2023/10/03 07:27:26;;;;;;;;;;;;;;;;;;5028433;28;19925;-69
2023/10/03 07:29:54;;;;;;;;;;;;;;;;;;5031035;28;19925;-67
2023/10/03 07:32:23;;;;;;;;;;;;;;;;;;5014514;28;19986;-69
2023/10/03 07:34:51;;;;;;;;;;;;;;;;;;5032856;28;21189;-71
2023/10/03 07:37:17;;;;;;;;;;;;;;;;;;5029525;28;19916;-67
2023/10/03 07:39:43;;;;;;;;;;;;;;;;;;5014330;28;20391;-71
2023/10/03 07:42:09;;;;;;;;;;;;;;;;;;5030058;28;19921;-69
2023/10/03 07:44:37;;;;;;;;;;;;;;;;;;5031475;28;20044;-68
2023/10/03 07:47:03;;;;;;;;;;;;;;;;;;5030400;28;19916;-68
2023/10/03 07:49:31;;;;;;;;;;;;;;;;;;5014451;28;19956;-68
2023/10/03 07:51:59;;;;;;;;;;;;;;;;;;5011944;28;20835;-68
2023/10/03 07:54:26;;;;;;;;;;;;;;;;;;5030840;28;19967;-71
2023/10/03 07:56:53;;;;;;;;;;;;;;;;;;5034201;28;19917;-73
2023/10/03 07:59:19;;;;;;;;;;;;;;;;;;5045061;28;19968;-66
2023/10/03 08:01:45;;;;;;;;;;;;;;;;;;5052636;28;20003;-67
2023/10/03 08:04:12;;;;;;;;;;;;;;;;;;5015443;28;19924;-70
2023/10/03 08:06:38;;;;;;;;;;;;;;;;;;5017785;28;19921;-68
2023/10/03 08:09:04;;;;;;;;;;;;;;;;;;5051637;28;19923;-70
2023/10/03 08:11:32;;;;;;;;;;;;;;;;;;5031746;28;19974;-68
2023/10/03 08:13:58;;;;;;;;;;;;;;;;;;5017642;28;19924;-67
2023/10/03 08:16:27;;;;;;;;;;;;;;;;;;5029628;28;21422;-68
2023/10/03 08:18:57;;;;;;;;;;;;;;;;;;5030990;28;20026;-69
2023/10/03 08:21:23;;;;;;;;;;;;;;;;;;5015156;28;19928;-66
2023/10/03 08:23:51;;;;;;;;;;;;;;;;;;5050781;28;19920;-68
2023/10/03 08:26:17;;;;;;;;;;;;;;;;;;5032709;28;19966;-68
2023/10/03 08:28:42;;;;;;;;;;;;;;;;;;5032084;28;19920;-67
2023/10/03 08:31:08;;;;;;;;;;;;;;;;;;5034952;28;19923;-68
2023/10/03 08:33:36;;;;;;;;;;;;;;;;;;5051140;28;19921;-68
2023/10/03 08:36:14;;;;;;;;;;;;;;;;;;5031313;28;20386;-69
2023/10/03 08:38:43;;;;;;;;;;;;;;;;;;5028286;28;19925;-67
2023/10/03 08:41:11;;;;;;;;;;;;;;;;;;5047986;28;19951;-69
2023/10/03 08:43:38;;;;;;;;;;;;;;;;;;5030405;28;19920;-65
2023/10/03 08:46:09;;;;;;;;;;;;;;;;;;5015626;28;19934;-68
2023/10/03 08:48:35;;;;;;;;;;;;;;;;;;5029326;28;19963;-69
2023/10/03 08:51:03;;;;;;;;;;;;;;;;;;5051890;28;22040;-68
2023/10/03 08:53:31;;;;;;;;;;;;;;;;;;5029738;28;20437;-69
2023/10/03 08:56:01;;;;;;;;;;;;;;;;;;5048900;28;20648;-69
2023/10/03 08:58:27;;;;;;;;;;;;;;;;;;5031421;28;19924;-73
2023/10/03 09:00:58;;;;;;;;;;;;;;;;;;5015147;28;19998;-70
2023/10/03 09:03:24;;;;;;;;;;;;;;;;;;5016797;28;19931;-69
2023/10/03 09:05:53;;;;;;;;;;;;;;;;;;5030549;28;19924;-71
2023/10/03 09:08:19;;;;;;;;;;;;;;;;;;5051112;28;19916;-71
2023/10/03 09:10:55;;;;;;;;;;;;;;;;;;5011407;28;20474;-70
2023/10/03 09:13:23;;;;;;;;;;;;;;;;;;5013093;28;19984;-71
2023/10/03 09:15:49;;;;;;;;;;;;;;;;;;5030301;28;19969;-67
2023/10/03 09:18:21;;;;;;;;;;;;;;;;;;5030312;28;20005;-68
2023/10/03 09:20:47;;;;;;;;;;;;;;;;;;5028941;28;20674;-71
2023/10/03 09:23:17;;;;;;;;;;;;;;;;;;5014716;28;20007;-69
2023/10/03 09:25:56;;;;;;;;;;;;;;;;;;5049346;28;19931;-67
2023/10/03 09:28:35;;;;;;;;;;;;;;;;;;5029034;28;19920;-68
2023/10/03 09:31:02;;;;;;;;;;;;;;;;;;5012393;28;20146;-69
2023/10/03 09:33:28;;;;;;;;;;;;;;;;;;5032203;28;19920;-69
2023/10/03 09:35:53;;;;;;;;;;;;;;;;;;5013341;28;19916;-71
2023/10/03 09:38:25;;;;;;;;;;;;;;;;;;5027035;28;20012;-67
2023/10/03 09:40:51;;;;;;;;;;;;;;;;;;5050079;28;19916;-66
2023/10/03 09:43:16;;;;;;;;;;;;;;;;;;5050226;28;19920;-68
2023/10/03 09:45:45;;;;;;;;;;;;;;;;;;5025705;28;20003;-69
2023/10/03 09:48:14;;;;;;;;;;;;;;;;;;5050870;28;20612;-67
2023/10/03 09:50:53;;;;;;;;;;;;;;;;;;5029550;28;19916;-69
2023/10/03 09:53:18;;;;;;;;;;;;;;;;;;5045749;28;19928;-69
2023/10/03 09:55:47;;;;;;;;;;;;;;;;;;5029980;28;19942;-69
2023/10/03 09:58:12;;;;;;;;;;;;;;;;;;5015435;28;20360;-68
2023/10/03 10:01:11;;;;;;;;;;;;;;;;;;5028723;28;19926;-69
2023/10/03 10:03:33;;;;;;;;;;;;;;;;;;5026613;28;19920;-68
2023/10/03 10:06:01;;;;;;;;;;;;;;;;;;5028193;28;20833;-68
2023/10/03 10:08:29;;;;;;;;;;;;;;;;;;5030087;28;20053;-67
2023/10/03 10:10:54;;;;;;;;;;;;;;;;;;5011315;28;19966;-68
2023/10/03 10:13:24;;;;;;;;;;;;;;;;;;5028251;28;19920;-68
2023/10/03 10:15:49;;;;;;;;;;;;;;;;;;5029116;28;20406;-67
2023/10/03 10:18:15;;;;;;;;;;;;;;;;;;5049947;28;19932;-67
2023/10/03 10:20:43;;;;;;;;;;;;;;;;;;5046916;28;19928;-67
2023/10/03 10:25:50;;;;;;;;;;;;;;;;;;5048928;28;19942;-66
2023/10/03 10:28:17;;;;;;;;;;;;;;;;;;5031113;28;19931;-69
2023/10/03 10:30:44;;;;;;;;;;;;;;;;;;5030318;28;21166;-68
2023/10/03 10:33:10;;;;;;;;;;;;;;;;;;5049612;28;20363;-67
2023/10/03 10:35:35;;;;;;;;;;;;;;;;;;5048634;28;19916;-68
2023/10/03 10:38:03;;;;;;;;;;;;;;;;;;5013671;28;19965;-67
2023/10/03 10:40:29;;;;;;;;;;;;;;;;;;5047589;28;19999;-68
2023/10/03 10:42:55;;;;;;;;;;;;;;;;;;5030261;28;19916;-68
2023/10/03 10:45:21;;;;;;;;;;;;;;;;;;5029148;28;19997;-68
2023/10/03 10:47:48;;;;;;;;;;;;;;;;;;5050058;28;19928;-68
2023/10/03 10:50:14;;;;;;;;;;;;;;;;;;5013956;28;19920;-68
2023/10/03 10:52:39;;;;;;;;;;;;;;;;;;5048456;28;19917;-66
2023/10/03 10:55:07;;;;;;;;;;;;;;;;;;5029189;28;20001;-69
2023/10/03 10:57:33;;;;;;;;;;;;;;;;;;5047914;28;19920;-67
2023/10/03 10:59:58;;;;;;;;;;;;;;;;;;5023453;28;20655;-68
2023/10/03 11:02:28;;;;;;;;;;;;;;;;;;5012180;28;19920;-70
2023/10/03 11:04:56;;;;;;;;;;;;;;;;;;5048705;28;20029;-68
2023/10/03 11:07:25;;;;;;;;;;;;;;;;;;5028344;28;19920;-70
2023/10/03 11:09:50;;;;;;;;;;;;;;;;;;5027871;28;19931;-66
2023/10/03 11:12:15;;;;;;;;;;;;;;;;;;5027748;28;20461;-68
2023/10/03 11:14:42;;;;;;;;;;;;;;;;;;5045545;28;20020;-67
2023/10/03 11:17:07;;;;;;;;;;;;;;;;;;5048215;28;19947;-67
2023/10/03 11:19:36;;;;;;;;;;;;;;;;;;5011582;28;19963;-69
2023/10/03 11:22:04;;;;;;;;;;;;;;;;;;5049112;28;20015;-67
2023/10/03 11:24:29;;;;;;;;;;;;;;;;;;5044736;28;20011;-71
2023/10/03 11:26:55;;;;;;;;;;;;;;;;;;5049809;28;20421;-66
2023/10/03 11:29:21;;;;;;;;;;;;;;;;;;5046298;28;19920;-67
2023/10/03 11:31:49;;;;;;;;;;;;;;;;;;5011484;28;19956;-67
2023/10/03 11:34:15;;;;;;;;;;;;;;;;;;5049804;28;20082;-67
2023/10/03 11:36:41;;;;;;;;;;;;;;;;;;5046737;28;20283;-68
2023/10/03 11:39:06;;;;;;;;;;;;;;;;;;5011576;28;19923;-68
2023/10/03 11:41:33;;;;;;;;;;;;;;;;;;5031513;28;19920;-66
2023/10/03 11:44:01;;;;;;;;;;;;;;;;;;5031558;28;19921;-67
2023/10/03 11:46:29;;;;;;;;;;;;;;;;;;5053014;28;20474;-67
2023/10/03 11:48:55;;;;;;;;;;;;;;;;;;5031543;28;19922;-67
2023/10/03 11:51:20;;;;;;;;;;;;;;;;;;5052763;28;19924;-66
2023/10/03 11:53:49;;;;;;;;;;;;;;;;;;5033675;28;19939;-66
2023/10/03 11:56:14;;;;;;;;;;;;;;;;;;5014291;28;19942;-66
2023/10/03 11:58:42;;;;;;;;;;;;;;;;;;5028343;28;20376;-70
2023/10/03 12:01:12;;;;;;;;;;;;;;;;;;5011468;28;19921;-65
2023/10/03 12:03:37;;;;;;;;;;;;;;;;;;5011703;28;19928;-66
2023/10/03 12:06:04;;;;;;;;;;;;;;;;;;4994297;28;21824;-69
2023/10/03 12:08:31;;;;;;;;;;;;;;;;;;5011766;28;20011;-67
2023/10/03 12:10:57;;;;;;;;;;;;;;;;;;5010581;28;20007;-67
2023/10/03 12:13:22;;;;;;;;;;;;;;;;;;4994934;28;20870;-68
2023/10/03 12:15:48;;;;;;;;;;;;;;;;;;4994179;28;19960;-68
2023/10/03 12:18:16;;;;;;;;;;;;;;;;;;5010321;28;20792;-68
2023/10/03 12:20:43;;;;;;;;;;;;;;;;;;5009991;28;19932;-67
2023/10/03 12:23:09;;;;;;;;;;;;;;;;;;5011221;28;20037;-67
2023/10/03 12:25:35;;;;;;;;;;;;;;;;;;5011514;28;20585;-67
2023/10/03 12:28:00;;;;;;;;;;;;;;;;;;5010105;28;19921;-67
2023/10/03 12:30:25;;;;;;;;;;;;;;;;;;5008988;28;19917;-72
2023/10/03 12:32:56;;;;;;;;;;;;;;;;;;5011108;28;20514;-67
2023/10/03 12:35:21;;;;;;;;;;;;;;;;;;5012004;28;19975;-68
2023/10/03 12:37:48;;;;;;;;;;;;;;;;;;5011677;28;19925;-65
2023/10/03 12:40:13;;;;;;;;;;;;;;;;;;4993008;28;19917;-68
2023/10/03 12:42:40;;;;;;;;;;;;;;;;;;5011669;28;19925;-67
2023/10/03 12:45:13;;;;;;;;;;;;;;;;;;5010030;28;20475;-67
2023/10/03 12:47:47;;;;;;;;;;;;;;;;;;5007702;28;20008;-67
2023/10/03 12:50:13;;;;;;;;;;;;;;;;;;5012338;28;19921;-67
2023/10/03 12:52:39;;;;;;;;;;;;;;;;;;5010010;28;19991;-68
2023/10/03 12:55:05;;;;;;;;;;;;;;;;;;4994162;28;19975;-68
2023/10/03 12:57:30;;;;;;;;;;;;;;;;;;4991193;28;20395;-68
2023/10/03 12:59:55;;;;;;;;;;;;;;;;;;5022517;28;19925;-66
2023/10/03 13:02:22;;;;;;;;;;;;;;;;;;5010032;28;19928;-68
2023/10/03 13:04:48;;;;;;;;;;;;;;;;;;5006607;28;19921;-68
2023/10/03 13:07:15;;;;;;;;;;;;;;;;;;4992241;28;19928;-67
2023/10/03 13:09:40;;;;;;;;;;;;;;;;;;4992563;28;20380;-67
2023/10/03 13:12:09;;;;;;;;;;;;;;;;;;5025251;28;19988;-68
2023/10/03 13:14:35;;;;;;;;;;;;;;;;;;5009282;28;19917;-67
2023/10/03 13:17:09;;;;;;;;;;;;;;;;;;4993122;28;20176;-67
2023/10/03 13:19:37;;;;;;;;;;;;;;;;;;5009362;28;19936;-67
2023/10/03 13:22:04;;;;;;;;;;;;;;;;;;5009559;28;19921;-68
2023/10/03 13:24:30;;;;;;;;;;;;;;;;;;4991345;28;19925;-72
2023/10/03 13:26:56;;;;;;;;;;;;;;;;;;5008646;28;19921;-67
2023/10/03 13:29:24;;;;;;;;;;;;;;;;;;5009762;28;19925;-68
2023/10/03 13:31:51;;;;;;;;;;;;;;;;;;5008343;28;19929;-67
2023/10/03 13:34:19;;;;;;;;;;;;;;;;;;5010365;28;22035;-67
2023/10/03 13:36:48;;;;;;;;;;;;;;;;;;5003247;28;21084;-68
2023/10/03 13:39:13;;;;;;;;;;;;;;;;;;5007720;28;19924;-67
2023/10/03 13:41:42;;;;;;;;;;;;;;;;;;4992902;28;19917;-66
2023/10/03 13:46:35;;;;;;;;;;;;;;;;;;5034186;28;19933;-67
2023/10/03 13:49:01;;;;;;;;;;;;;;;;;;5020707;28;20267;-68
2023/10/03 13:51:27;;;;;;;;;;;;;;;;;;5035488;28;19956;-67
2023/10/03 13:53:52;;;;;;;;;;;;;;;;;;5014617;28;20012;-69
2023/10/03 13:56:18;;;;;;;;;;;;;;;;;;5035368;28;19927;-68
2023/10/03 13:58:49;;;;;;;;;;;;;;;;;;5003797;28;19928;-65
2023/10/03 14:01:15;;;;;;;;;;;;;;;;;;5034870;28;20021;-67
2023/10/03 14:03:43;;;;;;;;;;;;;;;;;;5017075;28;19917;-67
2023/10/03 14:06:15;;;;;;;;;;;;;;;;;;5018037;28;19920;-65
2023/10/03 14:08:41;;;;;;;;;;;;;;;;;;5035092;28;19921;-65
2023/10/03 14:11:06;;;;;;;;;;;;;;;;;;5033818;28;19947;-69
2023/10/03 14:13:34;;;;;;;;;;;;;;;;;;5035217;28;19927;-68
2023/10/03 14:15:59;;;;;;;;;;;;;;;;;;4996117;28;19917;-66
2023/10/03 14:18:25;;;;;;;;;;;;;;;;;;5017065;28;19921;-68
2023/10/03 14:20:50;;;;;;;;;;;;;;;;;;5017541;28;19986;-71
2023/10/03 14:23:19;;;;;;;;;;;;;;;;;;5001024;28;20532;-65
2023/10/03 14:25:44;;;;;;;;;;;;;;;;;;4999334;28;19989;-65
2023/10/03 14:28:13;;;;;;;;;;;;;;;;;;5017346;28;20043;-66
2023/10/03 14:30:39;;;;;;;;;;;;;;;;;;5000487;28;19917;-67
2023/10/03 14:33:08;;;;;;;;;;;;;;;;;;5029939;28;19917;-65
2023/10/03 14:35:33;;;;;;;;;;;;;;;;;;5034178;28;20011;-68
2023/10/03 14:38:01;;;;;;;;;;;;;;;;;;5034849;28;19921;-66
2023/10/03 14:40:27;;;;;;;;;;;;;;;;;;5034069;28;20020;-64
2023/10/03 14:42:55;;;;;;;;;;;;;;;;;;5016879;28;19924;-67
2023/10/03 14:45:20;;;;;;;;;;;;;;;;;;4998006;28;19952;-66
2023/10/03 14:47:47;;;;;;;;;;;;;;;;;;5005416;28;19956;-64
2023/10/03 14:50:13;;;;;;;;;;;;;;;;;;5012424;28;19921;-64
2023/10/03 14:52:38;;;;;;;;;;;;;;;;;;4999510;28;19958;-66
2023/10/03 14:55:06;;;;;;;;;;;;;;;;;;5012010;28;19994;-64
2023/10/03 14:57:34;;;;;;;;;;;;;;;;;;5005767;28;20307;-64
2023/10/03 15:00:03;;;;;;;;;;;;;;;;;;5027056;28;19925;-66
2023/10/03 15:02:29;;;;;;;;;;;;;;;;;;5016720;28;19921;-66
2023/10/03 15:04:57;;;;;;;;;;;;;;;;;;4993167;28;19924;-64
2023/10/03 15:07:22;;;;;;;;;;;;;;;;;;5026053;28;19921;-62
2023/10/03 15:09:48;;;;;;;;;;;;;;;;;;4991722;28;19923;-65
2023/10/03 15:12:16;;;;;;;;;;;;;;;;;;5008479;28;19920;-64
2023/10/03 15:14:42;;;;;;;;;;;;;;;;;;5013191;28;19920;-64
2023/10/03 15:17:10;;;;;;;;;;;;;;;;;;5010761;28;19921;-65
2023/10/03 15:19:36;;;;;;;;;;;;;;;;;;5005303;28;20451;-63
2023/10/03 15:22:03;;;;;;;;;;;;;;;;;;5015884;28;20010;-63
2023/10/03 15:24:30;;;;;;;;;;;;;;;;;;5001339;28;19925;-65
2023/10/03 15:26:55;;;;;;;;;;;;;;;;;;5011348;28;20355;-64
2023/10/03 15:29:20;;;;;;;;;;;;;;;;;;5016789;28;19921;-66
2023/10/03 15:31:48;;;;;;;;;;;;;;;;;;5015257;28;19927;-65
2023/10/03 15:34:13;;;;;;;;;;;;;;;;;;5032433;28;19920;-65
2023/10/03 15:36:39;;;;;;;;;;;;;;;;;;5022206;28;19968;-68
2023/10/03 15:39:14;;;;;;;;;;;;;;;;;;5016300;28;19932;-68
2023/10/03 15:41:39;;;;;;;;;;;;;;;;;;4998782;28;19931;-64
2023/10/03 15:44:05;;;;;;;;;;;;;;;;;;5034344;28;20386;-65
2023/10/03 15:46:33;;;;;;;;;;;;;;;;;;5035827;28;20446;-64
2023/10/03 15:48:58;;;;;;;;;;;;;;;;;;5016736;28;20335;-66
2023/10/03 15:51:26;;;;;;;;;;;;;;;;;;5015645;28;20004;-64
2023/10/03 15:53:54;;;;;;;;;;;;;;;;;;5012136;28;19927;-64
2023/10/03 15:56:21;;;;;;;;;;;;;;;;;;4997619;28;20002;-65
2023/10/03 15:58:46;;;;;;;;;;;;;;;;;;5014582;28;19927;-66
2023/10/03 16:01:15;;;;;;;;;;;;;;;;;;5020976;28;19920;-65
2023/10/03 16:03:45;;;;;;;;;;;;;;;;;;4991074;28;19983;-64
2023/10/03 16:06:13;;;;;;;;;;;;;;;;;;5015948;28;19990;-64
2023/10/03 16:08:38;;;;;;;;;;;;;;;;;;5032264;28;20719;-63
2023/10/03 16:11:04;;;;;;;;;;;;;;;;;;5015208;28;19916;-63
2023/10/03 16:13:31;;;;;;;;;;;;;;;;;;5003013;28;19917;-68
2023/10/03 16:15:56;;;;;;;;;;;;;;;;;;4984300;28;19951;-68
2023/10/03 16:18:24;;;;;;;;;;;;;;;;;;4998936;28;20838;-66
2023/10/03 16:20:53;;;;;;;;;;;;;;;;;;5033874;28;19923;-67
2023/10/03 16:23:18;;;;;;;;;;;;;;;;;;4999508;28;19920;-68
2023/10/03 16:25:45;;;;;;;;;;;;;;;;;;5018295;28;21831;-66
2023/10/03 16:28:11;;;;;;;;;;;;;;;;;;5013600;28;19927;-65
2023/10/03 16:30:36;;;;;;;;;;;;;;;;;;5032747;28;19921;-72
2023/10/03 16:33:02;;;;;;;;;;;;;;;;;;4998981;28;20675;-66
2023/10/03 16:35:31;;;;;;;;;;;;;;;;;;5015098;28;19944;-69
2023/10/03 16:37:58;;;;;;;;;;;;;;;;;;5013344;28;20631;-68
2023/10/03 16:40:23;;;;;;;;;;;;;;;;;;5007373;28;19916;-63
2023/10/03 16:42:51;;;;;;;;;;;;;;;;;;5019079;28;19921;-64
2023/10/03 16:45:17;;;;;;;;;;;;;;;;;;4997741;28;19946;-67
2023/10/03 16:47:43;;;;;;;;;;;;;;;;;;5001703;28;19921;-67
2023/10/03 16:50:10;;;;;;;;;;;;;;;;;;5012955;28;19981;-67
2023/10/03 16:52:36;;;;;;;;;;;;;;;;;;4995613;28;19945;-67